Krasnoozersk, Russia
Current Conditions -  °F | °C
As of 6:00 PM on Sunday 21 Dec 2014 (Local Time) from UASP Reporting Station
Clear Clear  
Wind Chill:   Ceiling: Unl
Heat Index: 12°   Visibility: 6mi
Dew Point:   Wind: 7mph
Humidity: 79%   Direction: 160°SSE
Pressure: 30.18"   Gusts: NA
Location:  53.98°N, 79.23°E
Report Text: UASP 211100Z 16003MPS CAVOK M11/M14 Q1022 R21/390145 NOSIG RMKQFE755/1007
Loading
Personal Weather Stations






























Interactive Weather Map New forecast layout! Learn more

10-Day Weather Forecast

Advertisements
Track Severe Weather on mobile